aviador You're here:

KOFF Decoded Metar

OMAHA in NE, USA
Report Time2018-05-27 00:56:00
UTC Time2018-05-27 01:04:20
Flight Rules vfr VFR
Wind060° at 03 kt
W.Decomp.*RWY 12: 1.3 kt HW 2.7 kt LCW
W.Rank060° ranks 26
Current wind is below 060° avg. (5.6)
Visibility9999 m
Phenomena:N/A
Clouds:N/A
Expected CloudBase > 7,200 ft AGL from Temp-Dew spread
CeilingNone
Temp33°C (ISA +20)
Dew Point15°C (34% RH)
Heat Index32.6°C
QNH1007 hPa
Density Alt3,760 ft
Elevation1,047 ft
Report Wrong Elevation
Raw Report
KOFF 270056Z AUTO 06003KT 10SM CLR 33/15 A2973 RMK AO2 SLP061
T03310151 $=

Extra information for KOFF:More info

Metar Taf Metar & Taf Last 4 Metars F.Rules Stats Wind Profile Meteogram Temp Stats Airport Information Weather charts Add Link Nearby VenuesMetar ALERT Operation Metar Decoded Social comments

AIRNAV info for KOFF